Time;durP1;ratioP1;P1;durP2;ratioP2;P2;SDS_P1;SDS_P2;PMS_P1;PMS_P2;Temp;Humidity;BMP_temperature;BMP_pressure;BME280_temperature;BME280_humidity;BME280_pressure;Samples;Min_cycle;Max_cycle;Signal;HPM_P1;HPM_P2
2021/12/04 00:00:22;;;;;;;19.60;14.50;;;;;;;5.56;59.31;100425.21;117455;1185;23484;-57
2021/12/04 00:02:57;;;;;;;19.70;13.60;;;;;;;5.58;59.16;100425.41;117310;1182;21853;-57
2021/12/04 00:05:25;;;;;;;18.20;13.20;;;;;;;5.59;59.34;100429.08;117330;1186;21868;-55
2021/12/04 00:07:53;;;;;;;18.50;13.90;;;;;;;5.59;59.38;100430.30;117332;1186;21908;-54
2021/12/04 00:10:27;;;;;;;19.70;13.30;;;;;;;5.59;59.42;100425.41;117261;1182;21860;-54
2021/12/04 00:12:55;;;;;;;18.80;13.10;;;;;;;5.58;59.37;100429.77;117314;1186;23556;-57
2021/12/04 00:15:23;;;;;;;21.70;14.60;;;;;;;5.58;59.21;100433.42;117320;1186;22925;-58
2021/12/04 00:17:51;;;;;;;19.20;12.60;;;;;;;5.59;59.36;100434.81;117279;1186;21858;-60
2021/12/04 00:20:19;;;;;;;15.40;11.90;;;;;;;5.58;59.33;100424.89;117333;1185;24296;-56
2021/12/04 00:22:48;;;;;;;19.20;13.80;;;;;;;5.59;59.34;100422.11;117301;1182;21908;-59
2021/12/04 00:25:16;;;;;;;19.20;13.40;;;;;;;5.61;59.17;100420.40;117326;1189;21885;-60
2021/12/04 00:27:49;;;;;;;20.60;14.30;;;;;;;5.61;59.55;100423.17;117277;1186;21863;-58
2021/12/04 00:30:17;;;;;;;16.90;13.10;;;;;;;5.71;59.31;100420.84;117236;1185;23457;-55
2021/12/04 00:32:55;;;;;;;20.00;13.50;;;;;;;5.66;59.28;100418.70;117283;1182;22166;-59
2021/12/04 00:43:16;;;;;;;18.00;13.20;;;;;;;5.68;59.29;100416.98;117301;1185;21857;-58
2021/12/04 00:51:42;;;;;;;17.50;13.40;;;;;;;5.64;59.25;100423.38;117291;1182;21854;-56
2021/12/04 00:54:12;;;;;;;19.30;13.20;;;;;;;5.65;59.22;100421.83;117304;1185;23447;-56
2021/12/04 00:56:41;;;;;;;18.60;12.70;;;;;;;5.66;59.42;100418.52;117316;1186;21913;-58
2021/12/04 00:59:10;;;;;;;20.80;13.30;;;;;;;5.69;59.32;100415.06;117365;1185;21895;-57
2021/12/04 01:01:39;;;;;;;19.20;13.20;;;;;;;5.72;59.36;100416.48;117303;1185;21897;-58
2021/12/04 01:04:11;;;;;;;19.70;13.50;;;;;;;5.73;59.09;100409.18;117295;1186;24842;-58
2021/12/04 01:06:40;;;;;;;19.50;13.20;;;;;;;5.74;59.38;100412.30;117355;1186;22757;-58
2021/12/04 01:09:09;;;;;;;19.20;13.00;;;;;;;5.74;59.16;100414.40;117261;1180;21880;-55
2021/12/04 01:11:38;;;;;;;17.90;13.80;;;;;;;5.74;59.07;100414.76;117305;1185;23579;-58
2021/12/04 01:14:07;;;;;;;20.50;14.10;;;;;;;5.71;59.10;100414.04;117343;1182;21855;-59
2021/12/04 01:16:35;;;;;;;19.70;13.40;;;;;;;5.69;59.25;100415.41;117335;1183;21857;-59
2021/12/04 01:19:03;;;;;;;19.70;14.20;;;;;;;5.65;59.05;100419.73;117321;1183;21913;-59
2021/12/04 01:21:32;;;;;;;17.00;13.20;;;;;;;5.62;59.14;100418.30;117363;1186;21861;-59
2021/12/04 01:24:00;;;;;;;19.80;12.80;;;;;;;5.60;59.14;100418.46;117333;1186;22914;-55
2021/12/04 01:26:28;;;;;;;16.90;13.10;;;;;;;5.57;59.11;100421.57;117303;1186;21863;-59
2021/12/04 01:28:56;;;;;;;17.10;12.70;;;;;;;5.58;59.09;100419.84;117266;1185;21875;-59
2021/12/04 01:31:25;;;;;;;18.10;13.80;;;;;;;5.59;59.26;100423.15;117394;1182;21854;-55
2021/12/04 01:33:53;;;;;;;17.00;12.80;;;;;;;5.57;59.28;100430.80;117319;1185;23525;-56
2021/12/04 01:36:21;;;;;;;16.60;13.30;;;;;;;5.58;59.27;100428.38;117426;1186;21865;-55
2021/12/04 01:38:51;;;;;;;19.10;13.30;;;;;;;5.58;58.98;100423.66;117346;1186;21899;-59
2021/12/04 01:41:20;;;;;;;20.10;13.00;;;;;;;5.57;59.32;100422.27;117362;1185;23710;-56
2021/12/04 01:43:48;;;;;;;18.90;13.50;;;;;;;5.56;59.02;100421.21;117335;1183;21901;-59
2021/12/04 01:46:16;;;;;;;17.30;12.90;;;;;;;5.55;58.97;100417.55;117284;1185;22912;-56
2021/12/04 01:48:44;;;;;;;20.20;13.70;;;;;;;5.54;59.17;100413.71;117349;1185;22843;-58
2021/12/04 01:51:12;;;;;;;18.00;13.10;;;;;;;5.54;59.19;100407.09;117308;1185;21855;-55
2021/12/04 01:53:40;;;;;;;18.00;12.40;;;;;;;5.53;59.29;100403.59;117472;1185;21848;-58
2021/12/04 01:56:08;;;;;;;16.90;12.60;;;;;;;5.51;59.11;100400.47;117282;1185;21897;-55
2021/12/04 01:58:37;;;;;;;16.60;12.30;;;;;;;5.50;59.22;100395.07;117373;1186;23143;-56
2021/12/04 02:01:06;;;;;;;20.00;13.10;;;;;;;5.49;59.05;100390.35;117243;1188;21913;-55
2021/12/04 02:03:35;;;;;;;18.70;12.60;;;;;;;5.49;59.27;100386.70;117344;1186;21853;-58
2021/12/04 02:06:03;;;;;;;20.10;13.00;;;;;;;5.47;58.88;100383.89;117294;1186;22463;-58
2021/12/04 02:08:31;;;;;;;19.30;13.70;;;;;;;5.45;58.96;100382.30;117379;1185;21902;-58
2021/12/04 02:11:00;;;;;;;19.20;14.10;;;;;;;5.43;59.17;100381.59;117287;1186;22603;-55
2021/12/04 02:13:28;;;;;;;16.40;13.10;;;;;;;5.43;59.12;100379.67;117316;1186;23538;-56
2021/12/04 02:16:01;;;;;;;20.60;13.80;;;;;;;5.42;59.09;100380.02;117303;1183;21857;-56
2021/12/04 02:18:29;;;;;;;16.30;13.10;;;;;;;5.41;59.03;100380.36;117304;1186;21880;-58
2021/12/04 02:20:57;;;;;;;17.30;13.30;;;;;;;5.40;58.98;100374.95;117191;1182;21861;-55
2021/12/04 02:23:26;;;;;;;20.50;13.50;;;;;;;5.40;59.17;100374.59;117347;1186;21854;-56
2021/12/04 02:25:54;;;;;;;18.80;13.50;;;;;;;5.37;58.99;100377.71;117359;1186;21982;-59
2021/12/04 02:28:23;;;;;;;18.40;13.70;;;;;;;5.36;58.98;100379.44;117263;1186;21870;-58
2021/12/04 02:30:51;;;;;;;19.80;12.90;;;;;;;5.37;58.99;100382.40;117110;1187;21868;-59
2021/12/04 02:33:21;;;;;;;19.10;14.00;;;;;;;5.35;59.25;100384.84;117329;1186;22736;-57
2021/12/04 02:35:54;;;;;;;19.50;12.80;;;;;;;5.33;59.02;100384.46;117337;1182;22031;-58
2021/12/04 02:38:24;;;;;;;17.80;12.80;;;;;;;5.32;59.31;100386.71;117419;1185;21858;-58
2021/12/04 02:40:53;;;;;;;;;;;;;;;5.32;59.20;100392.97;117366;1185;23692;-55
2021/12/04 02:43:22;;;;;;;18.70;12.30;;;;;;;5.30;59.27;100399.05;117373;1185;22913;-57
2021/12/04 02:45:50;;;;;;;16.00;12.30;;;;;;;5.31;59.27;100409.14;117357;1185;21859;-58
2021/12/04 02:48:19;;;;;;;17.60;12.30;;;;;;;5.31;59.11;100419.58;117502;1185;21867;-56
2021/12/04 02:50:48;;;;;;;16.70;13.10;;;;;;;5.30;59.04;100427.06;117394;1184;21867;-57
2021/12/04 02:53:17;;;;;;;18.30;13.60;;;;;;;5.28;59.16;100428.61;117325;1186;21867;-55
2021/12/04 02:55:46;;;;;;;20.00;13.20;;;;;;;5.27;59.23;100434.52;117381;1184;21918;-55
2021/12/04 02:58:16;;;;;;;17.30;12.50;;;;;;;5.24;59.16;100435.52;117452;1185;22707;-55
2021/12/04 03:00:48;;;;;;;21.20;14.80;;;;;;;5.22;59.29;100436.73;117309;1184;21865;-54
2021/12/04 03:03:18;;;;;;;19.80;14.20;;;;;;;5.20;59.34;100438.45;117338;1186;22904;-54
2021/12/04 03:05:50;;;;;;;19.50;13.80;;;;;;;5.20;59.18;100439.33;117142;1185;21854;-55
2021/12/04 03:08:22;;;;;;;21.90;13.10;;;;;;;5.21;59.29;100445.60;117355;1186;21840;-57
2021/12/04 03:10:51;;;;;;;18.80;13.20;;;;;;;5.22;59.31;100449.95;117257;1186;21971;-57
2021/12/04 03:13:21;;;;;;;16.50;13.30;;;;;;;5.21;59.36;100452.38;117317;1185;21907;-55
2021/12/04 03:15:57;;;;;;;20.00;13.90;;;;;;;5.21;59.14;100457.59;117390;1184;21857;-54
2021/12/04 03:18:27;;;;;;;18.10;14.00;;;;;;;5.24;59.19;100460.58;117354;1185;22621;-57
2021/12/04 03:20:58;;;;;;;21.30;14.00;;;;;;;5.26;59.23;100464.08;117314;1185;21855;-55
2021/12/04 03:23:30;;;;;;;19.90;13.20;;;;;;;5.28;59.33;100466.02;117313;1186;22006;-53
2021/12/04 03:26:00;;;;;;;20.30;13.10;;;;;;;5.29;59.31;100464.64;117315;1186;21891;-55
2021/12/04 03:28:31;;;;;;;20.80;13.90;;;;;;;5.32;59.24;100468.48;117242;1186;21904;-57
2021/12/04 03:31:06;;;;;;;17.30;13.40;;;;;;;5.34;59.00;100474.08;117329;1180;23462;-56
2021/12/04 03:41:55;;;;;;;16.60;13.40;;;;;;;5.36;59.12;100467.66;117338;1186;22176;-58
2021/12/04 03:44:23;;;;;;;24.60;13.30;;;;;;;5.34;59.06;100466.60;117373;1186;21856;-54
2021/12/04 03:46:52;;;;;;;19.10;13.40;;;;;;;5.33;59.00;100467.29;117304;1184;21867;-54
2021/12/04 03:49:20;;;;;;;21.90;14.10;;;;;;;5.31;58.94;100465.54;117272;1186;23439;-56
2021/12/04 03:51:48;;;;;;;19.80;13.40;;;;;;;5.31;59.02;100465.70;117237;1183;21859;-57
2021/12/04 03:54:17;;;;;;;19.70;13.30;;;;;;;5.29;59.20;100466.56;117100;1186;21864;-57
2021/12/04 03:56:45;;;;;;;18.10;14.00;;;;;;;5.25;59.08;100467.91;117418;1184;21855;-53
2021/12/04 03:59:13;;;;;;;18.40;12.90;;;;;;;5.25;59.22;100468.94;117351;1186;24155;-59
2021/12/04 04:01:42;;;;;;;16.40;12.70;;;;;;;5.24;59.24;100471.70;117335;1186;21900;-54
2021/12/04 04:04:10;;;;;;;17.60;13.40;;;;;;;5.26;59.11;100470.36;117362;1183;21890;-57
2021/12/04 04:06:38;;;;;;;16.60;12.50;;;;;;;5.27;59.12;100465.84;117295;1188;22096;-56
2021/12/04 04:09:07;;;;;;;19.90;13.40;;;;;;;5.25;59.07;100465.13;117272;1185;21853;-54
2021/12/04 04:11:36;;;;;;;16.10;12.40;;;;;;;5.24;59.21;100461.64;117321;1186;21913;-57
2021/12/04 04:14:04;;;;;;;18.10;13.10;;;;;;;5.22;59.32;100456.04;117347;1186;21854;-54
2021/12/04 04:16:36;;;;;;;18.40;12.80;;;;;;;5.21;59.40;100457.42;117471;1180;21858;-56
2021/12/04 04:19:04;;;;;;;16.50;12.00;;;;;;;5.25;59.19;100456.75;117281;1186;21856;-57
2021/12/04 04:21:39;;;;;;;18.30;12.90;;;;;;;5.27;59.28;100460.10;117294;1185;21860;-57
2021/12/04 04:24:08;;;;;;;20.40;13.60;;;;;;;5.29;59.41;100458.90;117259;1184;21854;-57
2021/12/04 04:26:37;;;;;;;;;;;;;;;5.29;59.04;100460.12;117343;1182;23675;-57
2021/12/04 04:29:06;;;;;;;16.80;11.90;;;;;;;5.29;59.13;100463.60;117354;1186;21855;-57
2021/12/04 04:31:35;;;;;;;17.30;11.80;;;;;;;5.29;59.04;100465.52;117335;1186;21874;-54
2021/12/04 04:34:07;;;;;;;15.80;12.00;;;;;;;5.32;59.07;100462.75;117298;1186;23644;-56
2021/12/04 05:01:58;;;;;;;16.90;11.60;;;;;;;5.48;59.05;100462.23;117311;1178;21855;-55
2021/12/04 05:15:21;;;;;;;17.20;12.60;;;;;;;5.53;59.02;100454.08;117323;1184;21867;-59
2021/12/04 05:20:37;;;;;;;17.60;12.90;;;;;;;5.46;58.98;100458.55;117321;1181;21868;-55
2021/12/04 05:23:09;;;;;;;17.30;12.70;;;;;;;5.46;59.09;100457.34;117309;1185;23482;-59
2021/12/04 05:25:37;;;;;;;17.20;12.50;;;;;;;5.45;58.83;100460.46;117324;1186;21951;-54
2021/12/04 05:28:06;;;;;;;20.30;12.80;;;;;;;5.44;58.90;100464.80;117357;1183;21856;-58
2021/12/04 05:30:35;;;;;;;18.40;13.40;;;;;;;5.42;58.92;100471.91;117354;1186;21906;-53
2021/12/04 05:33:03;;;;;;;17.00;12.90;;;;;;;5.40;59.19;100472.58;117394;1186;21855;-54
2021/12/04 05:35:32;;;;;;;19.50;12.70;;;;;;;5.44;59.08;100478.71;117244;1185;21951;-55
2021/12/04 05:38:01;;;;;;;27.10;13.60;;;;;;;5.45;59.23;100473.86;117331;1186;22029;-55
2021/12/04 05:40:29;;;;;;;21.00;12.80;;;;;;;5.47;59.08;100470.39;117326;1186;21878;-59
2021/12/04 05:43:02;;;;;;;21.20;13.40;;;;;;;5.50;59.17;100473.73;117284;1184;21858;-54
2021/12/04 05:45:31;;;;;;;18.80;13.30;;;;;;;5.51;58.92;100473.21;117375;1182;22634;-55
2021/12/04 05:48:06;;;;;;;19.80;12.40;;;;;;;5.49;58.89;100470.41;117393;1186;21860;-57
2021/12/04 05:56:34;;;;;;;22.60;12.70;;;;;;;5.59;59.39;100473.46;117231;1188;21856;-60
2021/12/04 05:59:03;;;;;;;26.60;14.90;;;;;;;5.63;59.02;100475.24;117293;1186;21857;-59
2021/12/04 06:01:31;;;;;;;21.90;13.10;;;;;;;5.66;59.16;100479.11;117376;1178;21877;-61
2021/12/04 06:03:59;;;;;;;19.00;13.00;;;;;;;5.69;59.15;100471.29;117382;1186;24852;-60
2021/12/04 06:06:28;;;;;;;23.90;14.30;;;;;;;5.68;59.28;100466.77;117327;1183;21864;-56
2021/12/04 06:08:56;;;;;;;23.40;13.50;;;;;;;5.68;58.99;100460.84;117320;1184;23637;-59
2021/12/04 06:11:24;;;;;;;20.00;13.30;;;;;;;5.66;59.02;100461.52;117290;1184;22037;-55
2021/12/04 06:13:52;;;;;;;22.10;13.90;;;;;;;5.67;59.40;100459.97;117347;1186;21907;-56
2021/12/04 06:16:21;;;;;;;19.30;12.80;;;;;;;5.67;59.25;100455.61;117410;1184;21858;-56
2021/12/04 06:18:52;;;;;;;19.60;13.10;;;;;;;5.69;59.37;100458.07;117042;1186;24170;-61
2021/12/04 06:24:07;;;;;;;21.90;13.00;;;;;;;5.69;59.41;100447.97;117475;1185;22068;-56
2021/12/04 06:26:36;;;;;;;19.20;13.90;;;;;;;5.69;59.49;100450.94;117395;1185;21892;-56
2021/12/04 06:29:04;;;;;;;18.40;13.30;;;;;;;5.68;59.21;100450.40;117301;1185;22937;-55
2021/12/04 06:31:34;;;;;;;21.10;13.60;;;;;;;5.65;59.35;100446.02;117382;1185;21856;-55
2021/12/04 06:34:02;;;;;;;20.90;12.90;;;;;;;5.63;59.30;100451.05;117317;1184;22954;-60
2021/12/04 06:36:30;;;;;;;16.60;13.00;;;;;;;5.61;59.18;100452.77;117328;1186;23435;-60
2021/12/04 06:38:59;;;;;;;22.20;14.10;;;;;;;5.59;59.30;100451.70;117365;1185;22355;-55
2021/12/04 06:41:28;;;;;;;23.10;12.60;;;;;;;5.56;58.95;100451.66;117382;1185;21904;-60
2021/12/04 06:43:56;;;;;;;17.50;13.40;;;;;;;5.56;58.95;100454.81;117430;1182;21873;-60
2021/12/04 06:46:25;;;;;;;20.80;13.10;;;;;;;5.59;59.19;100459.38;117363;1185;22834;-56
2021/12/04 06:49:03;;;;;;;17.60;13.20;;;;;;;5.61;59.48;100464.95;117292;1183;22916;-61
2021/12/04 06:51:38;;;;;;;19.70;13.70;;;;;;;5.62;59.33;100463.75;117347;1186;21868;-56
2021/12/04 06:54:16;;;;;;;22.40;14.20;;;;;;;5.62;59.32;100466.17;117280;1186;21863;-60
2021/12/04 06:56:45;;;;;;;18.60;13.80;;;;;;;5.66;59.54;100461.00;117382;1185;21969;-58
2021/12/04 06:59:19;;;;;;;18.20;13.30;;;;;;;5.69;59.52;100457.55;117359;1185;23458;-60
2021/12/04 07:01:47;;;;;;;17.60;13.30;;;;;;;5.73;59.53;100456.36;117386;1184;21862;-57
2021/12/04 07:04:17;;;;;;;17.10;13.30;;;;;;;5.74;59.39;100457.23;117324;1186;21863;-58
2021/12/04 07:06:48;;;;;;;19.10;13.30;;;;;;;5.78;59.77;100461.27;117255;1186;23460;-60
2021/12/04 07:09:33;;;;;;;16.90;13.30;;;;;;;5.85;59.41;100459.42;117302;1178;21956;-60
2021/12/04 07:12:01;;;;;;;21.70;14.20;;;;;;;5.92;59.55;100461.57;117277;1185;21861;-61
2021/12/04 07:14:30;;;;;;;19.50;13.50;;;;;;;5.99;59.72;100458.84;117422;1185;21861;-60
2021/12/04 07:17:01;;;;;;;17.90;13.40;;;;;;;6.03;59.62;100459.59;117346;1185;21943;-60
2021/12/04 07:19:30;;;;;;;17.20;14.10;;;;;;;6.06;59.70;100458.39;117226;1185;22914;-56
2021/12/04 07:21:58;;;;;;;17.70;13.90;;;;;;;6.12;59.50;100459.66;117434;1184;23433;-61
2021/12/04 07:24:28;;;;;;;19.30;14.70;;;;;;;6.16;59.47;100461.95;117379;1182;23510;-60
2021/12/04 07:26:57;;;;;;;19.40;13.60;;;;;;;6.22;59.52;100460.60;118293;1182;24281;-60
2021/12/04 07:29:26;;;;;;;20.20;13.90;;;;;;;6.22;59.34;100452.06;117390;1185;22613;-56
2021/12/04 07:31:54;;;;;;;21.30;13.70;;;;;;;6.22;59.40;100448.92;117300;1183;21857;-60
2021/12/04 07:34:22;;;;;;;16.90;13.20;;;;;;;6.21;59.34;100450.15;117309;1184;21867;-56
2021/12/04 07:36:51;;;;;;;18.40;14.40;;;;;;;6.22;59.57;100453.10;117375;1185;21857;-60
2021/12/04 07:39:19;;;;;;;19.10;13.80;;;;;;;6.23;59.35;100448.94;117406;1185;22490;-61
2021/12/04 07:41:47;;;;;;;22.70;13.70;;;;;;;6.23;59.46;100446.48;117382;1183;22108;-60
2021/12/04 07:44:16;;;;;;;20.00;13.90;;;;;;;6.22;59.42;100453.29;117318;1182;21858;-56
2021/12/04 07:46:44;;;;;;;18.50;13.50;;;;;;;6.20;59.46;100455.19;117341;1186;21859;-60
2021/12/04 07:49:13;;;;;;;20.70;14.00;;;;;;;6.19;59.47;100463.70;117346;1182;21860;-60
2021/12/04 07:51:43;;;;;;;19.70;14.10;;;;;;;6.20;59.63;100463.55;117342;1185;22905;-60
2021/12/04 07:54:12;;;;;;;20.90;15.60;;;;;;;6.20;59.51;100464.08;117386;1186;21858;-57
2021/12/04 07:56:40;;;;;;;22.70;16.00;;;;;;;6.18;59.60;100463.72;117372;1183;21901;-59
2021/12/04 07:59:10;;;;;;;20.10;14.10;;;;;;;6.20;59.40;100464.60;117316;1182;21874;-56
2021/12/04 08:01:38;;;;;;;20.90;14.90;;;;;;;6.23;59.50;100464.78;117431;1186;21854;-56
2021/12/04 08:04:07;;;;;;;19.10;14.30;;;;;;;6.23;59.47;100461.14;117370;1185;23535;-59
2021/12/04 08:06:35;;;;;;;19.80;14.70;;;;;;;6.24;59.65;100466.02;117322;1185;21845;-59
2021/12/04 08:09:04;;;;;;;19.90;14.80;;;;;;;6.22;59.49;100463.04;117420;1185;22901;-58
2021/12/04 08:11:32;;;;;;;20.40;13.80;;;;;;;6.20;59.48;100460.77;117355;1186;21859;-59
2021/12/04 08:14:00;;;;;;;24.80;15.50;;;;;;;6.18;59.79;100457.44;117425;1184;21870;-60
2021/12/04 08:16:32;;;;;;;47.80;18.90;;;;;;;6.19;59.61;100457.09;117384;1184;21857;-57
2021/12/04 08:19:01;;;;;;;30.10;14.20;;;;;;;6.19;59.64;100453.43;117300;1183;21847;-57
2021/12/04 08:21:29;;;;;;;23.80;14.40;;;;;;;6.18;59.55;100451.86;117365;1185;23338;-55
2021/12/04 08:23:58;;;;;;;26.20;15.00;;;;;;;6.15;59.74;100449.58;117376;1186;21867;-56
2021/12/04 08:26:27;;;;;;;21.10;14.90;;;;;;;6.23;59.68;100443.71;117317;1182;23682;-56
2021/12/04 08:28:55;;;;;;;22.40;14.50;;;;;;;6.34;59.82;100438.90;117374;1184;21849;-60
2021/12/04 08:31:23;;;;;;;22.00;15.00;;;;;;;6.36;59.78;100434.55;118784;1185;23584;-57
2021/12/04 08:33:52;;;;;;;20.30;13.90;;;;;;;6.37;59.96;100436.66;117310;1182;21859;-53
2021/12/04 08:36:21;;;;;;;21.10;14.60;;;;;;;6.40;59.91;100434.41;117327;1185;21858;-58
2021/12/04 08:38:50;;;;;;;22.20;13.60;;;;;;;6.42;59.68;100432.84;117376;1185;22234;-59
2021/12/04 08:41:18;;;;;;;21.30;13.70;;;;;;;6.46;59.56;100433.56;117402;1186;21823;-58
2021/12/04 08:43:47;;;;;;;18.90;13.70;;;;;;;6.52;59.89;100428.36;117401;1184;22945;-54
2021/12/04 08:46:19;;;;;;;22.60;13.60;;;;;;;6.57;59.84;100419.32;117358;1186;21869;-56
2021/12/04 08:48:49;;;;;;;20.30;14.50;;;;;;;6.67;59.69;100412.90;117305;1185;23445;-56
2021/12/04 08:51:21;;;;;;;18.80;13.90;;;;;;;6.75;59.71;100409.80;117391;1185;21984;-56
2021/12/04 08:53:50;;;;;;;18.40;14.10;;;;;;;6.75;59.52;100407.54;117360;1180;21859;-55
2021/12/04 08:56:18;;;;;;;18.80;13.70;;;;;;;6.80;59.63;100404.59;117391;1182;23423;-56
2021/12/04 08:58:47;;;;;;;21.20;13.50;;;;;;;6.80;59.53;100399.02;117480;1186;21867;-58
2021/12/04 09:01:23;;;;;;;18.30;13.20;;;;;;;6.81;59.37;100401.29;117342;1185;21898;-55
2021/12/04 09:03:59;;;;;;;20.60;13.50;;;;;;;6.79;59.36;100396.05;117338;1186;22568;-55
2021/12/04 09:06:28;;;;;;;21.80;13.90;;;;;;;6.80;59.36;100388.03;117314;1184;21845;-55
2021/12/04 09:08:57;;;;;;;25.70;13.90;;;;;;;6.85;59.71;100379.15;117444;1180;22639;-57
2021/12/04 09:11:29;;;;;;;22.90;13.80;;;;;;;6.89;59.55;100376.70;117373;1185;23462;-54
2021/12/04 09:13:57;;;;;;;20.10;13.60;;;;;;;6.92;59.84;100370.61;117376;1185;21868;-58
2021/12/04 09:16:26;;;;;;;18.40;13.40;;;;;;;6.95;59.96;100368.52;117315;1187;23536;-59
2021/12/04 09:18:55;;;;;;;22.30;15.70;;;;;;;7.00;59.67;100368.02;117413;1185;21864;-56
2021/12/04 09:21:27;;;;;;;17.70;13.40;;;;;;;7.05;59.54;100360.18;117303;1186;21870;-58
2021/12/04 09:29:35;;;;;;;24.10;14.20;;;;;;;7.07;59.63;100342.72;117300;1184;21870;-56
2021/12/04 09:32:25;;;;;;;21.20;14.90;;;;;;;7.09;59.59;100341.69;117340;1185;21867;-59
2021/12/04 09:35:19;;;;;;;24.70;15.30;;;;;;;7.15;60.05;100337.33;117281;1184;21868;-58
2021/12/04 10:13:57;;;;;;;20.30;12.90;;;;;;;7.27;60.01;100317.63;117284;1186;21877;-56
2021/12/04 10:33:12;;;;;;;15.40;12.20;;;;;;;7.76;59.80;100320.20;117341;1185;24216;-56
2021/12/04 10:35:40;;;;;;;17.00;12.10;;;;;;;7.82;59.82;100320.20;117322;1186;22162;-57
2021/12/04 10:38:24;;;;;;;16.10;13.20;;;;;;;7.84;59.71;100324.02;117357;1186;23214;-58
2021/12/04 10:40:54;;;;;;;16.70;12.90;;;;;;;7.80;59.63;100326.48;117352;1186;24221;-56
2021/12/04 10:43:26;;;;;;;17.60;13.60;;;;;;;7.72;59.86;100316.04;117291;1184;22650;-56
2021/12/04 10:46:01;;;;;;;17.70;13.00;;;;;;;7.73;59.94;100315.14;117323;1186;21859;-58
2021/12/04 10:48:31;;;;;;;16.80;12.80;;;;;;;7.76;59.89;100311.83;117324;1184;23535;-58
2021/12/04 10:52:05;;;;;;;17.40;12.90;;;;;;;7.78;59.87;100308.15;117338;1184;23622;-55
2021/12/04 10:54:04;;;;;;;18.30;13.50;;;;;;;7.78;59.61;100298.54;117313;1180;21859;-58
2021/12/04 10:57:00;;;;;;;16.30;12.60;;;;;;;7.74;59.57;100291.73;117281;1186;23541;-58
2021/12/04 11:04:41;;;;;;;16.20;13.30;;;;;;;7.62;59.67;100284.42;118744;1184;22218;-57
2021/12/04 11:07:48;;;;;;;16.90;12.80;;;;;;;7.60;59.84;100279.89;117310;1186;22740;-55
2021/12/04 11:43:15;;;;;;;20.20;12.40;;;;;;;7.72;59.51;100251.57;117326;1181;21855;-57
2021/12/04 11:45:49;;;;;;;21.30;13.80;;;;;;;7.71;59.71;100248.27;117325;1184;23544;-56
2021/12/04 11:48:28;;;;;;;19.90;12.70;;;;;;;7.67;59.69;100245.48;117277;1184;21905;-56
2021/12/04 11:50:57;;;;;;;19.90;12.90;;;;;;;7.67;59.67;100241.80;117268;1186;23634;-56
2021/12/04 11:53:26;;;;;;;19.80;13.00;;;;;;;7.73;59.51;100237.95;117401;1184;21859;-55
2021/12/04 11:55:54;;;;;;;17.90;12.20;;;;;;;7.74;59.60;100235.67;117347;1184;22642;-55
2021/12/04 11:58:25;;;;;;;18.90;12.90;;;;;;;7.74;59.48;100237.77;117300;1186;21851;-56
2021/12/04 12:00:57;;;;;;;18.40;13.40;;;;;;;7.70;59.64;100227.66;117317;1186;21863;-56
2021/12/04 12:03:30;;;;;;;19.30;13.10;;;;;;;7.77;59.52;100225.17;117307;1185;21856;-57
2021/12/04 12:06:07;;;;;;;18.70;13.60;;;;;;;7.74;59.55;100222.39;117329;1185;24162;-55
2021/12/04 12:08:43;;;;;;;21.80;13.50;;;;;;;7.74;59.61;100223.27;117433;1185;22096;-57
2021/12/04 12:11:22;;;;;;;16.90;11.50;;;;;;;7.73;59.48;100224.48;117293;1184;21856;-57
2021/12/04 12:14:07;;;;;;;14.70;11.20;;;;;;;7.73;59.60;100226.41;117323;1184;21858;-55
2021/12/04 12:16:38;;;;;;;15.10;11.00;;;;;;;7.69;59.54;100223.11;117065;1186;21859;-55
2021/12/04 12:19:11;;;;;;;18.00;12.10;;;;;;;7.68;59.69;100218.92;117261;1182;22619;-55
2021/12/04 12:21:51;;;;;;;15.60;12.00;;;;;;;7.66;59.77;100217.89;117351;1184;23537;-57
2021/12/04 12:24:54;;;;;;;16.90;11.30;;;;;;;7.62;59.59;100216.15;117296;1185;22982;-55
2021/12/04 12:27:42;;;;;;;14.50;11.90;;;;;;;7.63;59.91;100211.95;117092;1189;21861;-55
2021/12/04 12:36:03;;;;;;;20.30;12.90;;;;;;;7.68;59.70;100214.38;117378;1184;23469;-56
2021/12/04 12:38:58;;;;;;;18.00;11.90;;;;;;;7.66;59.92;100212.64;117348;1186;21876;-57
2021/12/04 12:41:46;;;;;;;18.80;12.20;;;;;;;7.66;59.50;100203.21;117377;1183;23461;-55
2021/12/04 12:44:18;;;;;;;17.20;11.20;;;;;;;7.65;59.66;100202.69;117129;1185;22929;-56
2021/12/04 12:46:57;;;;;;;17.40;11.50;;;;;;;7.63;59.60;100200.60;117400;1182;23529;-57
2021/12/04 12:49:42;;;;;;;19.20;12.40;;;;;;;7.59;59.67;100194.33;117289;1186;21861;-55
2021/12/04 12:52:16;;;;;;;20.80;12.10;;;;;;;7.55;59.54;100193.98;117408;1183;22156;-57
2021/12/04 12:54:45;;;;;;;17.60;12.00;;;;;;;7.53;59.56;100198.18;117287;1185;22947;-55
2021/12/04 12:57:30;;;;;;;20.70;13.00;;;;;;;7.50;59.71;100194.88;117706;1182;22125;-58
2021/12/04 13:12:14;;;;;;;21.30;12.00;;;;;;;7.47;59.74;100176.04;117235;1184;21847;-57
2021/12/04 13:14:42;;;;;;;18.60;11.40;;;;;;;7.46;59.88;100174.80;117317;1186;21868;-55
2021/12/04 13:17:11;;;;;;;16.80;12.00;;;;;;;7.43;59.85;100173.93;117305;1185;21858;-57
2021/12/04 13:19:42;;;;;;;19.10;11.50;;;;;;;7.43;59.72;100172.73;117368;1185;23440;-55
2021/12/04 13:22:13;;;;;;;16.80;11.50;;;;;;;7.41;59.61;100175.34;117329;1185;21855;-54
2021/12/04 13:24:42;;;;;;;18.70;12.50;;;;;;;7.36;59.59;100178.50;117232;1182;23467;-57
2021/12/04 13:29:41;;;;;;;26.80;15.10;;;;;;;7.20;59.60;100184.82;117080;1184;21861;-56
2021/12/04 13:32:11;;;;;;;17.20;12.40;;;;;;;7.15;59.52;100184.30;117064;1184;23633;-53
2021/12/04 13:34:40;;;;;;;21.30;15.90;;;;;;;7.12;59.28;100183.77;117304;1182;23436;-56
2021/12/04 13:37:09;;;;;;;25.80;18.60;;;;;;;7.07;59.57;100178.55;117384;1187;22086;-56
2021/12/04 13:39:39;;;;;;;18.90;15.10;;;;;;;7.03;59.37;100179.61;117324;1186;22936;-60
2021/12/04 13:42:08;;;;;;;16.50;13.00;;;;;;;6.99;59.43;100181.70;117343;1182;23535;-55
2021/12/04 13:44:39;;;;;;;25.60;18.30;;;;;;;6.96;59.47;100183.27;117353;1182;23626;-54
2021/12/04 13:47:08;;;;;;;22.10;15.20;;;;;;;6.94;59.32;100183.27;117287;1187;23540;-57
2021/12/04 13:49:44;;;;;;;18.40;13.60;;;;;;;6.94;59.35;100184.48;117334;1184;23464;-55
2021/12/04 13:52:12;;;;;;;24.90;13.60;;;;;;;6.93;59.60;100186.23;117224;1186;21848;-59
2021/12/04 13:54:46;;;;;;;18.70;12.60;;;;;;;6.89;59.21;100185.52;117345;1186;22869;-56
2021/12/04 13:57:15;;;;;;;17.30;12.50;;;;;;;6.84;59.29;100187.29;117360;1186;21856;-56
2021/12/04 13:59:43;;;;;;;19.10;13.50;;;;;;;6.79;59.29;100183.27;117272;1184;21850;-54
2021/12/04 14:02:21;;;;;;;20.30;12.60;;;;;;;6.76;59.35;100177.70;117341;1186;23494;-54
2021/12/04 14:05:01;;;;;;;16.70;11.20;;;;;;;6.69;59.42;100175.06;117318;1186;22622;-56
2021/12/04 14:07:30;;;;;;;17.60;11.30;;;;;;;6.63;59.62;100174.20;117254;1186;22905;-56
2021/12/04 14:09:58;;;;;;;19.00;11.90;;;;;;;6.57;59.39;100171.05;117343;1186;21860;-55
2021/12/04 14:12:29;;;;;;;16.10;12.30;;;;;;;6.55;59.43;100173.33;117264;1184;21848;-57
2021/12/04 14:14:58;;;;;;;16.30;12.30;;;;;;;6.54;59.76;100174.89;117089;1186;21891;-57
2021/12/04 14:17:26;;;;;;;18.70;12.70;;;;;;;6.53;59.71;100179.95;117270;1186;21865;-55
2021/12/04 14:19:54;;;;;;;27.80;19.00;;;;;;;6.53;59.50;100184.83;117290;1186;22813;-57
2021/12/04 14:22:22;;;;;;;25.30;15.30;;;;;;;6.47;59.28;100182.55;117284;1182;21986;-57
2021/12/04 14:24:58;;;;;;;24.10;16.00;;;;;;;6.41;59.75;100182.89;117353;1185;23436;-57
2021/12/04 14:27:28;;;;;;;23.90;14.80;;;;;;;6.40;59.65;100184.80;117328;1184;21911;-56
2021/12/04 14:30:09;;;;;;;22.00;14.80;;;;;;;6.39;59.78;100183.93;117327;1185;21867;-57
2021/12/04 14:32:39;;;;;;;18.70;12.90;;;;;;;6.37;59.56;100185.16;117337;1186;22913;-57